createdAt,value
2022-08-25T00:02:24.370Z,87.81
2022-08-25T00:05:32.200Z,87.70
2022-08-25T00:08:38.422Z,87.74
2022-08-25T00:11:42.459Z,87.58
2022-08-25T00:14:45.530Z,87.61
2022-08-25T00:17:49.405Z,87.60
2022-08-25T00:20:52.869Z,87.60
2022-08-25T00:23:56.723Z,87.54
2022-08-25T00:27:01.865Z,87.69
2022-08-25T00:30:06.318Z,87.88
2022-08-25T00:33:09.531Z,87.74
2022-08-25T00:36:12.684Z,87.70
2022-08-25T00:39:16.115Z,87.70
2022-08-25T00:42:20.798Z,87.83
2022-08-25T00:45:24.311Z,87.93
2022-08-25T00:48:27.399Z,87.95
2022-08-25T00:51:35.320Z,87.75
2022-08-25T00:54:53.268Z,87.84
2022-08-25T00:58:01.566Z,88.06
2022-08-25T01:01:05.242Z,88.16
2022-08-25T01:04:08.792Z,88.15
2022-08-25T01:07:15.600Z,88.08
2022-08-25T01:10:22.812Z,88.27
2022-08-25T01:13:47.558Z,88.16
2022-08-25T01:16:53.580Z,88.24
2022-08-25T01:19:57.223Z,88.35
2022-08-25T01:23:01.043Z,88.44
2022-08-25T01:26:07.763Z,88.39
2022-08-25T01:29:24.631Z,88.48
2022-08-25T01:32:27.704Z,88.33
2022-08-25T01:35:32.883Z,88.38
2022-08-25T01:38:35.901Z,88.41
2022-08-25T01:42:11.710Z,88.53
2022-08-25T01:45:14.998Z,88.47
2022-08-25T01:48:19.357Z,88.45
2022-08-25T01:51:25.799Z,88.78
2022-08-25T01:54:29.008Z,88.65
2022-08-25T01:57:32.052Z,89.05
2022-08-25T02:00:35.274Z,88.92
2022-08-25T02:03:42.359Z,88.59
2022-08-25T02:06:45.894Z,88.85
2022-08-25T02:09:48.920Z,88.58
2022-08-25T02:12:54.375Z,88.69
2022-08-25T02:16:00.149Z,88.80
2022-08-25T02:19:07.411Z,88.89
2022-08-25T02:22:10.650Z,88.90
2022-08-25T02:25:13.895Z,88.73
2022-08-25T02:28:17.364Z,88.69
2022-08-25T02:31:23.659Z,88.59
2022-08-25T02:34:26.637Z,88.61
2022-08-25T02:37:29.804Z,88.71
2022-08-25T02:40:33.160Z,88.64
2022-08-25T02:43:36.394Z,88.56
2022-08-25T02:46:39.609Z,88.23
2022-08-25T02:49:43.225Z,88.14
2022-08-25T02:52:48.854Z,88.25
2022-08-25T02:55:51.997Z,88.10
2022-08-25T02:58:55.550Z,88.02
2022-08-25T03:01:59.050Z,88.25
2022-08-25T03:05:02.124Z,87.86
2022-08-25T03:08:07.135Z,88.15
2022-08-25T03:11:11.194Z,88.16
2022-08-25T03:14:14.704Z,87.85
2022-08-25T03:17:17.790Z,87.86
2022-08-25T03:20:23.218Z,87.81
2022-08-25T03:23:26.718Z,87.88
2022-08-25T03:26:48.700Z,87.72
2022-08-25T03:29:51.750Z,87.73
2022-08-25T03:32:55.217Z,87.73
2022-08-25T03:35:59.145Z,87.79
2022-08-25T03:39:03.700Z,87.75
2022-08-25T03:42:07.160Z,87.53
2022-08-25T03:45:12.155Z,87.80
2022-08-25T03:48:16.915Z,87.80
2022-08-25T03:51:26.691Z,87.94
2022-08-25T03:54:29.854Z,87.92
2022-08-25T03:57:33.053Z,87.90
2022-08-25T04:00:36.133Z,87.80
2022-08-25T04:03:39.811Z,87.67
2022-08-25T04:06:44.793Z,87.81
2022-08-25T04:09:48.071Z,87.56
2022-08-25T04:12:51.102Z,87.45
2022-08-25T04:15:54.276Z,87.20
2022-08-25T04:19:00.576Z,87.24
2022-08-25T04:22:04.000Z,87.15
2022-08-25T04:25:07.614Z,86.88
2022-08-25T04:28:10.987Z,86.79
2022-08-25T04:31:16.040Z,86.45
2022-08-25T04:34:29.713Z,86.37
2022-08-25T04:37:34.723Z,85.94
2022-08-25T04:40:38.243Z,85.76
2022-08-25T04:43:44.102Z,85.64
2022-08-25T04:46:47.434Z,85.96
2022-08-25T04:49:50.947Z,85.71
2022-08-25T04:52:54.333Z,85.40
2022-08-25T04:56:00.631Z,85.04
2022-08-25T04:59:11.799Z,84.72
2022-08-25T05:02:15.106Z,84.04
2022-08-25T05:05:18.434Z,84.06
2022-08-25T05:08:21.544Z,84.20
2022-08-25T05:11:26.357Z,83.72
2022-08-25T05:14:32.347Z,83.26
2022-08-25T05:17:35.524Z,82.57
2022-08-25T05:20:39.124Z,82.30
2022-08-25T05:23:43.325Z,82.19
2022-08-25T05:26:46.359Z,81.61
2022-08-25T05:29:49.530Z,80.80
2022-08-25T05:32:52.761Z,80.42
2022-08-25T05:35:55.994Z,80.08
2022-08-25T05:38:58.949Z,79.68
2022-08-25T05:42:02.783Z,79.45
2022-08-25T05:45:07.402Z,79.48
2022-08-25T05:48:10.753Z,79.20
2022-08-25T05:51:15.125Z,78.98
2022-08-25T05:54:18.428Z,79.16
2022-08-25T05:57:21.467Z,78.80
2022-08-25T06:00:24.711Z,79.11
2022-08-25T06:03:27.944Z,78.55
2022-08-25T06:06:31.455Z,78.18
2022-08-25T06:09:34.635Z,78.47
2022-08-25T06:12:38.509Z,78.68
2022-08-25T06:15:41.916Z,78.68
2022-08-25T06:18:45.214Z,78.01
2022-08-25T06:21:48.252Z,76.93
2022-08-25T06:24:51.742Z,75.67
2022-08-25T06:27:55.518Z,75.43
2022-08-25T06:31:00.847Z,75.52
2022-08-25T06:34:04.083Z,75.65
2022-08-25T06:37:07.287Z,74.61
2022-08-25T06:40:11.323Z,73.70
2022-08-25T06:43:15.719Z,72.82
2022-08-25T06:46:35.909Z,71.45
2022-08-25T06:49:40.221Z,70.45
2022-08-25T06:52:43.197Z,71.12
2022-08-25T06:55:56.092Z,71.32
2022-08-25T06:59:01.491Z,70.73
2022-08-25T07:02:07.165Z,70.32
2022-08-25T07:05:16.963Z,68.97
2022-08-25T07:08:30.205Z,67.43
2022-08-25T07:11:34.482Z,66.56
2022-08-25T07:14:38.065Z,65.14
2022-08-25T07:17:41.047Z,64.41
2022-08-25T07:20:47.108Z,63.39
2022-08-25T07:23:50.553Z,61.79
2022-08-25T07:26:53.872Z,62.12
2022-08-25T07:29:57.867Z,62.39
2022-08-25T07:33:06.343Z,60.94
2022-08-25T07:36:10.205Z,60.00
2022-08-25T07:39:13.703Z,60.13
2022-08-25T07:42:16.941Z,60.73
2022-08-25T07:45:30.963Z,60.17
2022-08-25T07:48:34.145Z,58.85
2022-08-25T07:51:38.823Z,58.00
2022-08-25T07:55:03.007Z,58.01
2022-08-25T07:58:08.434Z,58.42
2022-08-25T08:01:21.261Z,57.69
2022-08-25T08:04:24.736Z,57.27
2022-08-25T08:07:41.919Z,55.87
2022-08-25T08:11:04.503Z,55.44
2022-08-25T08:14:08.469Z,55.04
2022-08-25T08:17:11.992Z,54.93
2022-08-25T08:20:17.780Z,55.17
2022-08-25T08:23:28.241Z,53.09
2022-08-25T08:26:55.210Z,52.79
2022-08-25T08:29:54.847Z,52.46
2022-08-25T08:33:13.743Z,51.66
2022-08-25T08:36:18.584Z,50.62
2022-08-25T08:39:21.519Z,50.89
2022-08-25T08:42:46.871Z,50.89
2022-08-25T08:45:53.215Z,50.46
2022-08-25T08:49:05.960Z,49.41
2022-08-25T08:52:12.553Z,50.40
2022-08-25T08:55:41.964Z,50.40
2022-08-25T08:58:53.919Z,50.06
2022-08-25T09:02:00.777Z,49.83
2022-08-25T09:05:08.810Z,47.77
2022-08-25T09:08:13.716Z,47.71
2022-08-25T09:11:26.910Z,47.58
2022-08-25T09:14:42.976Z,46.87
2022-08-25T09:18:07.033Z,46.41
2022-08-25T09:21:45.650Z,47.54
2022-08-25T09:25:16.327Z,46.98
2022-08-25T09:28:46.955Z,47.10
2022-08-25T09:31:58.824Z,46.10
2022-08-25T09:35:03.551Z,45.51
2022-08-25T09:38:09.426Z,44.51
2022-08-25T09:41:17.214Z,45.36
2022-08-25T09:44:55.127Z,44.74
2022-08-25T09:47:58.448Z,45.67
2022-08-25T09:51:09.756Z,45.97
2022-08-25T09:54:13.209Z,45.14
2022-08-25T09:57:36.734Z,44.17
2022-08-25T10:00:40.004Z,43.91
2022-08-25T10:04:00.315Z,44.17
2022-08-25T10:07:20.910Z,41.88
2022-08-25T10:10:32.407Z,42.56
2022-08-25T10:13:48.999Z,41.16
2022-08-25T10:17:14.369Z,41.68
2022-08-25T10:20:22.228Z,42.77
2022-08-25T10:23:28.063Z,42.05
2022-08-25T10:26:46.290Z,40.70
2022-08-25T10:30:07.005Z,38.74
2022-08-25T10:33:10.261Z,38.50
2022-08-25T10:36:23.534Z,39.75
2022-08-25T10:39:58.177Z,40.02
2022-08-25T10:43:24.878Z,39.25
2022-08-25T10:46:28.172Z,38.02
2022-08-25T10:49:45.738Z,37.99
2022-08-25T10:53:11.924Z,39.29
2022-08-25T10:56:27.564Z,37.56
2022-08-25T10:59:39.948Z,36.83
2022-08-25T11:03:00.156Z,37.44
2022-08-25T11:06:08.236Z,37.63
2022-08-25T11:09:18.929Z,37.57
2022-08-25T11:12:38.822Z,37.49
2022-08-25T11:16:15.601Z,37.35
2022-08-25T11:19:35.307Z,37.45
2022-08-25T11:22:46.471Z,37.40
2022-08-25T11:25:59.842Z,38.34
2022-08-25T11:29:15.967Z,37.88
2022-08-25T11:32:23.751Z,39.09
2022-08-25T11:35:36.554Z,37.98
2022-08-25T11:38:53.420Z,39.14
2022-08-25T11:42:14.686Z,39.03
2022-08-25T11:45:36.359Z,40.29
2022-08-25T11:48:53.578Z,39.59
2022-08-25T11:52:02.854Z,38.04
2022-08-25T11:55:16.129Z,37.94
2022-08-25T11:58:28.557Z,39.46
2022-08-25T12:01:40.441Z,39.76
2022-08-25T12:04:45.450Z,39.72
2022-08-25T12:08:13.634Z,38.91
2022-08-25T12:11:38.975Z,36.09
2022-08-25T12:14:44.066Z,36.59
2022-08-25T12:18:09.036Z,34.92
2022-08-25T12:21:15.280Z,36.33
2022-08-25T12:24:25.488Z,35.71
2022-08-25T12:27:49.774Z,35.05
2022-08-25T12:30:59.303Z,32.90
2022-08-25T12:34:16.662Z,33.26
2022-08-25T12:37:23.496Z,33.83
2022-08-25T12:40:45.396Z,33.20
2022-08-25T12:43:51.207Z,33.31
2022-08-25T12:47:11.299Z,33.48
2022-08-25T12:50:36.287Z,32.49
2022-08-25T12:53:39.432Z,32.91
2022-08-25T12:56:47.689Z,32.55
2022-08-25T12:59:54.472Z,32.08
2022-08-25T13:07:02.227Z,33.27
2022-08-25T13:10:28.614Z,34.32
2022-08-25T13:13:38.069Z,33.59
2022-08-25T13:16:53.213Z,33.47
2022-08-25T13:20:15.357Z,32.05
2022-08-25T13:23:29.176Z,32.83
2022-08-25T13:26:38.123Z,32.83
2022-08-25T13:29:55.864Z,34.16
2022-08-25T13:32:59.722Z,34.55
2022-08-25T13:36:23.618Z,34.94
2022-08-25T13:39:55.104Z,34.45
2022-08-25T13:43:01.083Z,33.58
2022-08-25T13:46:06.504Z,37.82
2022-08-25T13:49:10.869Z,38.91
2022-08-25T13:52:33.274Z,37.69
2022-08-25T13:55:51.473Z,39.03
2022-08-25T13:58:58.601Z,38.32
2022-08-25T14:02:02.112Z,40.13
2022-08-25T14:05:06.343Z,37.90
2022-08-25T14:08:34.034Z,39.51
2022-08-25T14:11:58.368Z,41.34
2022-08-25T14:15:24.457Z,40.89
2022-08-25T14:18:33.354Z,41.07
2022-08-25T14:21:36.971Z,41.42
2022-08-25T14:24:44.141Z,41.75
2022-08-25T14:28:07.147Z,41.21
2022-08-25T14:31:16.789Z,43.06
2022-08-25T14:34:24.020Z,47.57
2022-08-25T14:37:27.137Z,48.03
2022-08-25T14:40:34.250Z,48.29
2022-08-25T14:43:37.693Z,49.15
2022-08-25T14:46:43.067Z,50.60
2022-08-25T14:49:48.128Z,50.08
2022-08-25T14:52:52.272Z,49.79
2022-08-25T14:55:59.331Z,50.71
2022-08-25T14:59:04.916Z,51.78
2022-08-25T15:02:08.710Z,51.42
2022-08-25T15:05:24.549Z,51.46
2022-08-25T15:08:46.510Z,51.42
2022-08-25T15:11:55.352Z,50.73
2022-08-25T15:14:58.408Z,51.62
2022-08-25T15:18:02.121Z,52.85
2022-08-25T15:21:05.294Z,52.13
2022-08-25T15:24:10.955Z,52.65
2022-08-25T15:27:19.054Z,53.14
2022-08-25T15:30:31.007Z,52.68
2022-08-25T15:33:34.617Z,52.60
2022-08-25T15:36:39.171Z,52.60
2022-08-25T15:39:44.546Z,52.04
2022-08-25T15:42:48.461Z,52.92
2022-08-25T15:45:51.603Z,53.72
2022-08-25T15:52:04.787Z,54.12
2022-08-25T15:55:10.342Z,54.97
2022-08-25T15:58:13.810Z,54.86
2022-08-25T16:01:21.552Z,55.86
2022-08-25T16:04:29.072Z,57.35
2022-08-25T16:07:33.475Z,59.26
2022-08-25T16:10:39.039Z,59.65
2022-08-25T16:13:43.757Z,60.02
2022-08-25T16:16:47.479Z,60.68
2022-08-25T16:19:51.101Z,61.21
2022-08-25T16:22:54.361Z,60.37
2022-08-25T16:25:58.200Z,59.84
2022-08-25T16:29:01.602Z,61.62
2022-08-25T16:32:13.426Z,62.43
2022-08-25T16:35:17.422Z,63.76
2022-08-25T16:38:21.024Z,64.08
2022-08-25T16:41:34.145Z,64.23
2022-08-25T16:44:40.512Z,64.33
2022-08-25T16:47:45.090Z,64.77
2022-08-25T16:50:48.791Z,65.14
2022-08-25T16:54:10.904Z,65.15
2022-08-25T16:57:15.026Z,65.52
2022-08-25T17:00:22.780Z,66.42
2022-08-25T17:03:28.287Z,67.66
2022-08-25T17:06:37.845Z,68.94
2022-08-25T17:09:41.054Z,69.72
2022-08-25T17:12:44.156Z,70.13
2022-08-25T17:15:49.290Z,70.54
2022-08-25T17:18:58.471Z,70.69
2022-08-25T17:22:01.991Z,70.67
2022-08-25T17:25:07.146Z,71.44
2022-08-25T17:28:11.963Z,71.98
2022-08-25T17:31:16.682Z,71.76
2022-08-25T17:34:23.028Z,71.87
2022-08-25T17:37:26.545Z,72.29
2022-08-25T17:40:29.971Z,72.41
2022-08-25T17:43:35.574Z,72.63
2022-08-25T17:46:47.444Z,72.88
2022-08-25T17:49:51.113Z,73.30
2022-08-25T17:52:54.435Z,73.45
2022-08-25T17:56:03.875Z,73.83
2022-08-25T17:59:08.110Z,74.43
2022-08-25T18:02:11.215Z,74.72
2022-08-25T18:05:16.803Z,74.48
2022-08-25T18:08:20.113Z,74.80
2022-08-25T18:11:36.030Z,74.88
2022-08-25T18:14:39.470Z,74.97
2022-08-25T18:17:43.420Z,75.30
2022-08-25T18:20:49.497Z,75.76
2022-08-25T18:23:53.227Z,75.75
2022-08-25T18:26:56.274Z,75.72
2022-08-25T18:30:00.543Z,75.92
2022-08-25T18:33:04.211Z,76.47
2022-08-25T18:36:08.945Z,76.81
2022-08-25T18:39:34.527Z,79.63
2022-08-25T18:42:38.821Z,83.00
2022-08-25T18:45:48.160Z,82.79
2022-08-25T18:48:52.886Z,80.82
2022-08-25T18:51:56.576Z,80.34
2022-08-25T18:55:00.326Z,79.88
2022-08-25T18:58:06.250Z,79.99
2022-08-25T19:01:14.437Z,80.34
2022-08-25T19:04:18.478Z,80.43
2022-08-25T19:07:21.793Z,80.56
2022-08-25T19:10:25.184Z,80.46
2022-08-25T19:13:28.804Z,80.80
2022-08-25T19:16:38.644Z,80.67
2022-08-25T19:19:43.028Z,80.83
2022-08-25T19:22:47.477Z,80.97
2022-08-25T19:25:50.956Z,80.99
2022-08-25T19:28:54.198Z,80.95
2022-08-25T19:31:57.704Z,81.36
2022-08-25T19:35:05.794Z,81.45
2022-08-25T19:38:33.469Z,81.86
2022-08-25T19:41:38.559Z,82.07
2022-08-25T19:44:42.606Z,82.24
2022-08-25T19:47:46.554Z,82.29
2022-08-25T19:50:49.983Z,82.46
2022-08-25T19:54:02.936Z,82.72
2022-08-25T19:57:11.130Z,82.66
2022-08-25T20:00:29.674Z,82.85
2022-08-25T20:03:34.400Z,83.01
2022-08-25T20:06:39.063Z,83.05
2022-08-25T20:09:43.282Z,83.22
2022-08-25T20:12:49.148Z,83.51
2022-08-25T20:15:53.317Z,83.59
2022-08-25T20:19:03.241Z,83.59
2022-08-25T20:22:08.459Z,83.79
2022-08-25T20:25:22.294Z,84.05
2022-08-25T20:28:26.776Z,84.02
2022-08-25T20:31:33.161Z,83.96
2022-08-25T20:34:39.163Z,83.89
2022-08-25T20:37:45.613Z,83.80
2022-08-25T20:40:50.187Z,83.50
2022-08-25T20:43:54.350Z,83.61
2022-08-25T20:47:03.980Z,83.50
2022-08-25T20:50:08.581Z,83.33
2022-08-25T20:53:13.790Z,83.26
2022-08-25T20:56:19.312Z,83.25
2022-08-25T20:59:24.354Z,83.29
2022-08-25T21:02:28.642Z,83.10
2022-08-25T21:05:32.473Z,83.04
2022-08-25T21:08:46.658Z,82.86
2022-08-25T21:11:54.430Z,82.80
2022-08-25T21:14:58.240Z,82.91
2022-08-25T21:18:02.453Z,82.94
2022-08-25T21:21:14.803Z,82.77
2022-08-25T21:24:21.093Z,82.84
2022-08-25T21:27:25.913Z,82.91
2022-08-25T21:30:31.836Z,82.71
2022-08-25T21:33:37.167Z,82.89
2022-08-25T21:36:42.807Z,82.67
2022-08-25T21:39:47.714Z,82.44
2022-08-25T21:42:52.571Z,82.57
2022-08-25T21:45:56.482Z,82.77
2022-08-25T21:49:00.918Z,82.72
2022-08-25T21:52:11.872Z,82.64
2022-08-25T21:55:17.623Z,82.55
2022-08-25T21:58:21.013Z,82.47
2022-08-25T22:01:24.596Z,82.46
2022-08-25T22:04:28.457Z,82.40
2022-08-25T22:07:34.384Z,82.42
2022-08-25T22:10:44.645Z,82.43
2022-08-25T22:13:50.451Z,82.58
2022-08-25T22:16:54.850Z,82.57
2022-08-25T22:19:58.240Z,82.43
2022-08-25T22:23:01.604Z,82.50
2022-08-25T22:26:05.197Z,82.48
2022-08-25T22:29:09.197Z,82.70
2022-08-25T22:32:13.573Z,82.85
2022-08-25T22:35:17.480Z,82.71
2022-08-25T22:38:23.336Z,82.95
2022-08-25T22:41:28.754Z,82.77
2022-08-25T22:44:32.176Z,82.82
2022-08-25T22:47:35.184Z,82.80
2022-08-25T22:50:38.386Z,82.85
2022-08-25T22:53:43.351Z,82.83
2022-08-25T22:56:46.478Z,83.09
2022-08-25T22:59:49.887Z,83.21
2022-08-25T23:02:53.295Z,83.05
2022-08-25T23:05:56.679Z,83.05
2022-08-25T23:09:01.195Z,83.12
2022-08-25T23:12:04.850Z,83.30
2022-08-25T23:15:12.964Z,83.33
2022-08-25T23:18:18.434Z,83.05
2022-08-25T23:21:42.457Z,82.94
2022-08-25T23:24:49.023Z,83.03
2022-08-25T23:27:52.735Z,83.04
2022-08-25T23:30:57.003Z,83.01
2022-08-25T23:34:01.114Z,82.94
2022-08-25T23:37:07.790Z,82.84
2022-08-25T23:40:12.152Z,82.89
2022-08-25T23:43:22.684Z,82.87
2022-08-25T23:46:29.587Z,82.84
2022-08-25T23:49:33.221Z,83.03
2022-08-25T23:52:36.519Z,83.17
2022-08-25T23:55:51.120Z,83.38
2022-08-25T23:58:56.286Z,83.03
